Eagle Point, Vermont
Current Conditions -  °F | °C
As of 1:15 AM on Thursday 23 Oct 2014 (Local Time) from KEFK Reporting Station
Overcast Overcast  
Wind Chill: 37°   Ceiling: 2300
Heat Index: 45°   Visibility: 10mi
Dew Point: 36°   Wind: 18mph
Humidity: 72%   Direction: 20°NNE
Pressure: 30.08"   Gusts: 24mph
Location:  44.9201°N, 72.2004°W
Report Text: KEFK 230515Z AUTO 02016G21KT 10SM OVC023 07/02 A3008 RMK AO2 T00700022
Loading
Personal Weather Stations






























Interactive Weather Map
Tropical Storm Tracking
New forecast layout! Learn more

10-Day Weather Forecast

Advertisements
Track Severe Weather on mobile